sensor_id;sensor_type;location;lat;lon;timestamp;pressure;altitude;pressure_sealevel;temperature;humidity
22550;BME280;11441;57.164;-2.120;2022-08-19T00:00:31;99877.69;;;14.26;100.00
22550;BME280;11441;57.164;-2.120;2022-08-19T00:03:17;99884.81;;;14.34;100.00
22550;BME280;11441;57.164;-2.120;2022-08-19T00:06:03;99899.44;;;14.38;100.00
22550;BME280;11441;57.164;-2.120;2022-08-19T00:08:29;99900.69;;;14.12;100.00
22550;BME280;11441;57.164;-2.120;2022-08-19T00:10:57;99897.88;;;14.37;100.00
22550;BME280;11441;57.164;-2.120;2022-08-19T00:13:24;99906.19;;;14.23;100.00
22550;BME280;11441;57.164;-2.120;2022-08-19T00:15:51;99897.53;;;14.06;100.00
22550;BME280;11441;57.164;-2.120;2022-08-19T00:18:18;99900.25;;;14.21;100.00
22550;BME280;11441;57.164;-2.120;2022-08-19T00:20:45;99885.22;;;14.25;100.00
22550;BME280;11441;57.164;-2.120;2022-08-19T00:23:12;99890.00;;;14.25;100.00
22550;BME280;11441;57.164;-2.120;2022-08-19T00:25:38;99903.00;;;14.28;100.00
22550;BME280;11441;57.164;-2.120;2022-08-19T00:28:05;99902.25;;;14.20;100.00
22550;BME280;11441;57.164;-2.120;2022-08-19T00:30:32;99891.94;;;14.28;100.00
22550;BME280;11441;57.164;-2.120;2022-08-19T00:33:00;99909.78;;;14.09;100.00
22550;BME280;11441;57.164;-2.120;2022-08-19T00:35:27;99931.53;;;14.14;100.00
22550;BME280;11441;57.164;-2.120;2022-08-19T00:37:54;99927.59;;;14.04;100.00
22550;BME280;11441;57.164;-2.120;2022-08-19T00:40:21;99932.75;;;13.99;100.00
22550;BME280;11441;57.164;-2.120;2022-08-19T00:42:48;99948.56;;;13.94;100.00
22550;BME280;11441;57.164;-2.120;2022-08-19T00:45:23;99948.16;;;13.96;100.00
22550;BME280;11441;57.164;-2.120;2022-08-19T00:47:51;99954.47;;;13.96;100.00
22550;BME280;11441;57.164;-2.120;2022-08-19T00:50:19;99947.38;;;13.92;100.00
22550;BME280;11441;57.164;-2.120;2022-08-19T00:52:49;99940.25;;;14.02;100.00
22550;BME280;11441;57.164;-2.120;2022-08-19T00:55:22;99938.28;;;13.81;100.00
22550;BME280;11441;57.164;-2.120;2022-08-19T00:57:56;99934.72;;;13.76;100.00
22550;BME280;11441;57.164;-2.120;2022-08-19T01:00:26;99933.56;;;13.81;100.00
22550;BME280;11441;57.164;-2.120;2022-08-19T01:02:54;99942.63;;;13.78;100.00
22550;BME280;11441;57.164;-2.120;2022-08-19T01:05:41;99945.78;;;13.84;100.00
22550;BME280;11441;57.164;-2.120;2022-08-19T01:08:09;99943.03;;;13.87;100.00
22550;BME280;11441;57.164;-2.120;2022-08-19T01:10:57;99941.44;;;13.90;100.00
22550;BME280;11441;57.164;-2.120;2022-08-19T01:13:29;99946.97;;;13.83;100.00
22550;BME280;11441;57.164;-2.120;2022-08-19T01:16:17;99960.03;;;13.82;100.00
22550;BME280;11441;57.164;-2.120;2022-08-19T01:18:45;99954.47;;;13.64;100.00
22550;BME280;11441;57.164;-2.120;2022-08-19T01:23:48;99959.16;;;13.31;100.00
22550;BME280;11441;57.164;-2.120;2022-08-19T01:26:18;99961.56;;;13.40;100.00
22550;BME280;11441;57.164;-2.120;2022-08-19T01:28:47;99959.50;;;13.15;100.00
22550;BME280;11441;57.164;-2.120;2022-08-19T01:31:21;99967.03;;;13.22;100.00
22550;BME280;11441;57.164;-2.120;2022-08-19T01:33:55;99965.44;;;13.21;100.00
22550;BME280;11441;57.164;-2.120;2022-08-19T01:36:27;99968.19;;;13.17;100.00
22550;BME280;11441;57.164;-2.120;2022-08-19T01:38:55;99976.47;;;13.14;100.00
22550;BME280;11441;57.164;-2.120;2022-08-19T01:41:22;99959.91;;;13.17;100.00
22550;BME280;11441;57.164;-2.120;2022-08-19T01:43:52;99967.81;;;13.19;100.00
22550;BME280;11441;57.164;-2.120;2022-08-19T01:46:40;99975.25;;;13.08;100.00
22550;BME280;11441;57.164;-2.120;2022-08-19T01:49:07;99976.44;;;12.99;100.00
22550;BME280;11441;57.164;-2.120;2022-08-19T01:51:35;99976.06;;;13.08;100.00
22550;BME280;11441;57.164;-2.120;2022-08-19T01:54:24;99967.75;;;13.05;100.00
22550;BME280;11441;57.164;-2.120;2022-08-19T01:57:07;99963.78;;;12.98;100.00
22550;BME280;11441;57.164;-2.120;2022-08-19T01:59:52;99972.09;;;13.06;100.00
22550;BME280;11441;57.164;-2.120;2022-08-19T02:02:19;99979.97;;;13.00;100.00
22550;BME280;11441;57.164;-2.120;2022-08-19T02:04:45;99989.38;;;12.88;100.00
22550;BME280;11441;57.164;-2.120;2022-08-19T02:07:12;99994.47;;;12.75;100.00
22550;BME280;11441;57.164;-2.120;2022-08-19T02:09:39;99993.72;;;12.82;100.00
22550;BME280;11441;57.164;-2.120;2022-08-19T02:12:06;99990.50;;;12.76;100.00
22550;BME280;11441;57.164;-2.120;2022-08-19T02:14:35;99991.31;;;12.77;100.00
22550;BME280;11441;57.164;-2.120;2022-08-19T02:17:03;99986.91;;;12.61;100.00
22550;BME280;11441;57.164;-2.120;2022-08-19T02:19:30;99987.19;;;12.42;100.00
22550;BME280;11441;57.164;-2.120;2022-08-19T02:21:59;99983.28;;;12.54;100.00
22550;BME280;11441;57.164;-2.120;2022-08-19T02:24:26;99982.13;;;12.58;100.00
22550;BME280;11441;57.164;-2.120;2022-08-19T02:26:54;99980.53;;;12.54;100.00
22550;BME280;11441;57.164;-2.120;2022-08-19T02:29:20;99988.81;;;12.54;100.00
22550;BME280;11441;57.164;-2.120;2022-08-19T02:31:48;99994.66;;;12.41;100.00
22550;BME280;11441;57.164;-2.120;2022-08-19T02:34:15;99982.06;;;12.44;100.00
22550;BME280;11441;57.164;-2.120;2022-08-19T02:36:43;99980.03;;;12.37;100.00
22550;BME280;11441;57.164;-2.120;2022-08-19T02:39:27;99982.09;;;12.48;100.00
22550;BME280;11441;57.164;-2.120;2022-08-19T02:41:54;99989.59;;;12.51;100.00
22550;BME280;11441;57.164;-2.120;2022-08-19T02:44:20;99994.31;;;12.50;100.00
22550;BME280;11441;57.164;-2.120;2022-08-19T02:46:56;99982.47;;;12.46;100.00
22550;BME280;11441;57.164;-2.120;2022-08-19T02:49:23;99978.56;;;12.51;100.00
22550;BME280;11441;57.164;-2.120;2022-08-19T02:51:50;99983.94;;;12.33;100.00
22550;BME280;11441;57.164;-2.120;2022-08-19T02:54:17;99987.06;;;12.27;100.00
22550;BME280;11441;57.164;-2.120;2022-08-19T02:56:44;99983.13;;;12.29;100.00
22550;BME280;11441;57.164;-2.120;2022-08-19T02:59:13;99983.91;;;12.25;100.00
22550;BME280;11441;57.164;-2.120;2022-08-19T03:01:41;99988.72;;;12.36;100.00
22550;BME280;11441;57.164;-2.120;2022-08-19T03:04:27;99994.50;;;12.16;100.00
22550;BME280;11441;57.164;-2.120;2022-08-19T03:06:54;99997.28;;;12.20;100.00
22550;BME280;11441;57.164;-2.120;2022-08-19T03:09:27;99996.94;;;12.29;100.00
22550;BME280;11441;57.164;-2.120;2022-08-19T03:11:56;100000.38;;;12.15;100.00
22550;BME280;11441;57.164;-2.120;2022-08-19T03:14:23;100000.38;;;12.11;100.00
22550;BME280;11441;57.164;-2.120;2022-08-19T03:16:51;100008.28;;;12.16;100.00
22550;BME280;11441;57.164;-2.120;2022-08-19T03:19:20;100010.13;;;12.01;100.00
22550;BME280;11441;57.164;-2.120;2022-08-19T03:21:50;100006.63;;;12.08;100.00
22550;BME280;11441;57.164;-2.120;2022-08-19T03:24:19;100009.22;;;11.90;100.00
22550;BME280;11441;57.164;-2.120;2022-08-19T03:26:53;100003.41;;;11.99;100.00
22550;BME280;11441;57.164;-2.120;2022-08-19T03:29:24;100012.81;;;11.91;100.00
22550;BME280;11441;57.164;-2.120;2022-08-19T03:32:03;100012.56;;;12.10;100.00
22550;BME280;11441;57.164;-2.120;2022-08-19T03:34:32;100009.41;;;12.08;100.00
22550;BME280;11441;57.164;-2.120;2022-08-19T03:37:06;100018.31;;;11.91;100.00
22550;BME280;11441;57.164;-2.120;2022-08-19T03:39:36;100024.19;;;11.89;100.00
22550;BME280;11441;57.164;-2.120;2022-08-19T03:42:22;100021.69;;;11.73;100.00
22550;BME280;11441;57.164;-2.120;2022-08-19T03:45:09;100013.53;;;11.87;100.00
22550;BME280;11441;57.164;-2.120;2022-08-19T03:47:37;100019.31;;;11.75;100.00
22550;BME280;11441;57.164;-2.120;2022-08-19T03:50:04;100002.38;;;11.73;100.00
22550;BME280;11441;57.164;-2.120;2022-08-19T03:52:31;99998.50;;;11.81;100.00
22550;BME280;11441;57.164;-2.120;2022-08-19T03:54:59;99997.88;;;11.95;100.00
22550;BME280;11441;57.164;-2.120;2022-08-19T03:57:26;100016.81;;;11.97;100.00
22550;BME280;11441;57.164;-2.120;2022-08-19T03:59:58;100016.66;;;11.86;100.00
22550;BME280;11441;57.164;-2.120;2022-08-19T04:02:40;100023.56;;;12.03;100.00
22550;BME280;11441;57.164;-2.120;2022-08-19T04:05:27;100024.66;;;11.95;100.00
22550;BME280;11441;57.164;-2.120;2022-08-19T04:07:55;100021.97;;;12.02;100.00
22550;BME280;11441;57.164;-2.120;2022-08-19T04:10:26;100025.50;;;11.99;100.00
22550;BME280;11441;57.164;-2.120;2022-08-19T04:12:54;100034.22;;;12.04;100.00
22550;BME280;11441;57.164;-2.120;2022-08-19T04:15:21;100039.78;;;12.12;100.00
22550;BME280;11441;57.164;-2.120;2022-08-19T04:17:48;100050.03;;;12.07;100.00
22550;BME280;11441;57.164;-2.120;2022-08-19T04:20:15;100049.50;;;11.95;100.00
22550;BME280;11441;57.164;-2.120;2022-08-19T04:22:42;100049.63;;;12.09;100.00
22550;BME280;11441;57.164;-2.120;2022-08-19T04:25:09;100045.97;;;11.98;100.00
22550;BME280;11441;57.164;-2.120;2022-08-19T04:27:36;100035.59;;;11.87;100.00
22550;BME280;11441;57.164;-2.120;2022-08-19T04:30:04;100048.78;;;12.05;100.00
22550;BME280;11441;57.164;-2.120;2022-08-19T04:32:30;100034.97;;;12.01;100.00
22550;BME280;11441;57.164;-2.120;2022-08-19T04:34:58;100048.38;;;12.03;100.00
22550;BME280;11441;57.164;-2.120;2022-08-19T04:37:42;100055.56;;;12.11;100.00
22550;BME280;11441;57.164;-2.120;2022-08-19T04:40:27;100057.50;;;12.07;100.00
22550;BME280;11441;57.164;-2.120;2022-08-19T04:43:13;100063.88;;;12.15;100.00
22550;BME280;11441;57.164;-2.120;2022-08-19T04:45:46;100041.28;;;11.98;100.00
22550;BME280;11441;57.164;-2.120;2022-08-19T04:48:32;100043.69;;;12.03;100.00
22550;BME280;11441;57.164;-2.120;2022-08-19T04:51:01;100049.22;;;12.07;100.00
22550;BME280;11441;57.164;-2.120;2022-08-19T04:53:29;100054.41;;;12.12;100.00
22550;BME280;11441;57.164;-2.120;2022-08-19T04:56:09;100050.44;;;12.13;100.00
22550;BME280;11441;57.164;-2.120;2022-08-19T04:58:37;100057.09;;;12.08;100.00
22550;BME280;11441;57.164;-2.120;2022-08-19T05:01:04;100058.25;;;12.04;100.00
22550;BME280;11441;57.164;-2.120;2022-08-19T05:03:32;100058.59;;;11.95;100.00
22550;BME280;11441;57.164;-2.120;2022-08-19T05:06:12;100053.91;;;12.03;100.00
22550;BME280;11441;57.164;-2.120;2022-08-19T05:08:40;100056.69;;;12.06;100.00
22550;BME280;11441;57.164;-2.120;2022-08-19T05:11:29;100054.78;;;12.11;100.00
22550;BME280;11441;57.164;-2.120;2022-08-19T05:13:57;100049.16;;;12.00;100.00
22550;BME280;11441;57.164;-2.120;2022-08-19T05:16:26;100047.91;;;11.94;100.00
22550;BME280;11441;57.164;-2.120;2022-08-19T05:18:54;100052.53;;;11.86;100.00
22550;BME280;11441;57.164;-2.120;2022-08-19T05:21:41;100063.34;;;11.98;100.00
22550;BME280;11441;57.164;-2.120;2022-08-19T05:24:28;100071.16;;;11.93;100.00
22550;BME280;11441;57.164;-2.120;2022-08-19T05:26:56;100069.75;;;12.10;100.00
22550;BME280;11441;57.164;-2.120;2022-08-19T05:29:25;100069.75;;;12.10;100.00
22550;BME280;11441;57.164;-2.120;2022-08-19T05:31:58;100063.84;;;12.11;100.00
22550;BME280;11441;57.164;-2.120;2022-08-19T05:34:26;100060.03;;;12.26;100.00
22550;BME280;11441;57.164;-2.120;2022-08-19T05:37:12;100065.63;;;12.34;100.00
22550;BME280;11441;57.164;-2.120;2022-08-19T05:39:39;100061.56;;;12.20;100.00
22550;BME280;11441;57.164;-2.120;2022-08-19T05:42:09;100069.16;;;12.34;100.00
22550;BME280;11441;57.164;-2.120;2022-08-19T05:44:39;100060.50;;;12.36;100.00
22550;BME280;11441;57.164;-2.120;2022-08-19T05:47:12;100064.03;;;12.36;100.00
22550;BME280;11441;57.164;-2.120;2022-08-19T05:49:40;100055.06;;;12.47;100.00
22550;BME280;11441;57.164;-2.120;2022-08-19T05:52:10;100064.13;;;12.43;100.00
22550;BME280;11441;57.164;-2.120;2022-08-19T05:54:57;100071.25;;;12.48;100.00
22550;BME280;11441;57.164;-2.120;2022-08-19T05:57:24;100079.94;;;12.50;100.00
22550;BME280;11441;57.164;-2.120;2022-08-19T05:59:51;100088.19;;;12.47;100.00
22550;BME280;11441;57.164;-2.120;2022-08-19T06:02:25;100080.06;;;12.64;100.00
22550;BME280;11441;57.164;-2.120;2022-08-19T06:04:52;100086.38;;;12.65;100.00
22550;BME280;11441;57.164;-2.120;2022-08-19T06:07:19;100087.66;;;12.82;100.00
22550;BME280;11441;57.164;-2.120;2022-08-19T06:09:46;100085.31;;;12.84;100.00
22550;BME280;11441;57.164;-2.120;2022-08-19T06:12:29;100082.06;;;12.75;100.00
22550;BME280;11441;57.164;-2.120;2022-08-19T06:15:05;100092.75;;;12.76;100.00
22550;BME280;11441;57.164;-2.120;2022-08-19T06:17:33;100089.56;;;12.74;100.00
22550;BME280;11441;57.164;-2.120;2022-08-19T06:20:13;100090.50;;;12.96;100.00
22550;BME280;11441;57.164;-2.120;2022-08-19T06:22:59;100089.66;;;12.89;100.00
22550;BME280;11441;57.164;-2.120;2022-08-19T06:25:26;100079.75;;;12.80;100.00
22550;BME280;11441;57.164;-2.120;2022-08-19T06:27:56;100077.38;;;12.79;100.00
22550;BME280;11441;57.164;-2.120;2022-08-19T06:30:41;100072.25;;;12.81;100.00
22550;BME280;11441;57.164;-2.120;2022-08-19T06:33:08;100081.44;;;12.96;100.00
22550;BME280;11441;57.164;-2.120;2022-08-19T06:35:39;100070.81;;;13.05;100.00
22550;BME280;11441;57.164;-2.120;2022-08-19T06:38:06;100076.31;;;12.98;100.00
22550;BME280;11441;57.164;-2.120;2022-08-19T06:40:34;100090.56;;;13.07;100.00
22550;BME280;11441;57.164;-2.120;2022-08-19T06:43:02;100094.84;;;12.97;100.00
22550;BME280;11441;57.164;-2.120;2022-08-19T06:45:36;100098.84;;;13.04;100.00
22550;BME280;11441;57.164;-2.120;2022-08-19T06:48:05;100102.47;;;13.15;100.00
22550;BME280;11441;57.164;-2.120;2022-08-19T06:50:33;100108.38;;;13.10;100.00
22550;BME280;11441;57.164;-2.120;2022-08-19T06:53:05;100100.88;;;13.14;100.00
22550;BME280;11441;57.164;-2.120;2022-08-19T06:55:32;100106.53;;;13.32;100.00
22550;BME280;11441;57.164;-2.120;2022-08-19T06:58:02;100108.94;;;13.41;100.00
22550;BME280;11441;57.164;-2.120;2022-08-19T07:00:30;100105.38;;;13.40;100.00
22550;BME280;11441;57.164;-2.120;2022-08-19T07:03:02;100113.28;;;13.38;100.00
22550;BME280;11441;57.164;-2.120;2022-08-19T07:05:52;100111.72;;;13.51;100.00
22550;BME280;11441;57.164;-2.120;2022-08-19T07:08:19;100107.44;;;13.57;100.00
22550;BME280;11441;57.164;-2.120;2022-08-19T07:10:46;100120.88;;;13.59;100.00
22550;BME280;11441;57.164;-2.120;2022-08-19T07:13:13;100126.03;;;13.64;100.00
22550;BME280;11441;57.164;-2.120;2022-08-19T07:15:40;100132.38;;;13.79;100.00
22550;BME280;11441;57.164;-2.120;2022-08-19T07:18:08;100140.69;;;13.75;100.00
22550;BME280;11441;57.164;-2.120;2022-08-19T07:20:38;100148.59;;;13.81;100.00
22550;BME280;11441;57.164;-2.120;2022-08-19T07:23:07;100147.75;;;13.58;100.00
22550;BME280;11441;57.164;-2.120;2022-08-19T07:25:37;100142.31;;;13.87;100.00
22550;BME280;11441;57.164;-2.120;2022-08-19T07:28:06;100145.09;;;13.94;100.00
22550;BME280;11441;57.164;-2.120;2022-08-19T07:31:13;100146.66;;;13.88;100.00
22550;BME280;11441;57.164;-2.120;2022-08-19T07:33:59;100162.94;;;14.15;100.00
22550;BME280;11441;57.164;-2.120;2022-08-19T07:36:28;100159.00;;;14.23;100.00
22550;BME280;11441;57.164;-2.120;2022-08-19T07:38:59;100151.50;;;14.27;100.00
22550;BME280;11441;57.164;-2.120;2022-08-19T07:41:28;100146.72;;;14.28;100.00
22550;BME280;11441;57.164;-2.120;2022-08-19T07:43:59;100161.81;;;14.45;100.00
22550;BME280;11441;57.164;-2.120;2022-08-19T07:46:34;100162.59;;;14.49;100.00
22550;BME280;11441;57.164;-2.120;2022-08-19T07:49:21;100144.78;;;14.53;100.00
22550;BME280;11441;57.164;-2.120;2022-08-19T07:52:00;100159.41;;;14.50;100.00
22550;BME280;11441;57.164;-2.120;2022-08-19T07:54:31;100164.19;;;14.50;100.00
22550;BME280;11441;57.164;-2.120;2022-08-19T07:57:19;100168.53;;;14.55;100.00
22550;BME280;11441;57.164;-2.120;2022-08-19T07:59:46;100151.94;;;14.47;100.00
22550;BME280;11441;57.164;-2.120;2022-08-19T08:02:13;100161.84;;;14.74;100.00
22550;BME280;11441;57.164;-2.120;2022-08-19T08:04:40;100164.97;;;14.54;100.00
22550;BME280;11441;57.164;-2.120;2022-08-19T08:07:25;100164.63;;;14.70;100.00
22550;BME280;11441;57.164;-2.120;2022-08-19T08:10:12;100154.72;;;14.80;100.00
22550;BME280;11441;57.164;-2.120;2022-08-19T08:12:47;100148.78;;;14.78;100.00
22550;BME280;11441;57.164;-2.120;2022-08-19T08:15:34;100147.97;;;14.95;100.00
22550;BME280;11441;57.164;-2.120;2022-08-19T08:18:07;100157.47;;;15.05;100.00
22550;BME280;11441;57.164;-2.120;2022-08-19T08:20:54;100157.06;;;14.88;100.00
22550;BME280;11441;57.164;-2.120;2022-08-19T08:23:21;100161.44;;;14.82;100.00
22550;BME280;11441;57.164;-2.120;2022-08-19T08:25:57;100176.47;;;14.96;100.00
22550;BME280;11441;57.164;-2.120;2022-08-19T08:28:26;100173.72;;;15.06;100.00
22550;BME280;11441;57.164;-2.120;2022-08-19T08:30:56;100174.91;;;14.66;100.00
22550;BME280;11441;57.164;-2.120;2022-08-19T08:33:25;100173.72;;;14.88;100.00
22550;BME280;11441;57.164;-2.120;2022-08-19T08:36:01;100183.22;;;15.02;100.00
22550;BME280;11441;57.164;-2.120;2022-08-19T08:38:31;100182.41;;;15.12;100.00
22550;BME280;11441;57.164;-2.120;2022-08-19T08:41:11;100183.19;;;15.13;100.00
22550;BME280;11441;57.164;-2.120;2022-08-19T08:43:48;100176.06;;;15.15;100.00
22550;BME280;11441;57.164;-2.120;2022-08-19T08:49:26;100166.88;;;15.47;100.00
22550;BME280;11441;57.164;-2.120;2022-08-19T08:52:10;100170.41;;;15.55;100.00
22550;BME280;11441;57.164;-2.120;2022-08-19T08:54:44;100188.63;;;15.63;100.00
22550;BME280;11441;57.164;-2.120;2022-08-19T08:57:36;100184.25;;;15.65;100.00
22550;BME280;11441;57.164;-2.120;2022-08-19T09:00:12;100189.38;;;15.67;100.00
22550;BME280;11441;57.164;-2.120;2022-08-19T09:02:42;100187.41;;;15.78;100.00
22550;BME280;11441;57.164;-2.120;2022-08-19T09:05:16;100187.38;;;15.86;100.00
22550;BME280;11441;57.164;-2.120;2022-08-19T09:15:40;100199.59;;;16.06;100.00
22550;BME280;11441;57.164;-2.120;2022-08-19T09:18:13;100196.31;;;16.22;100.00
22550;BME280;11441;57.164;-2.120;2022-08-19T09:20:45;100183.22;;;16.19;100.00
22550;BME280;11441;57.164;-2.120;2022-08-19T09:23:14;100186.09;;;16.05;100.00
22550;BME280;11441;57.164;-2.120;2022-08-19T09:26:01;100182.53;;;16.04;100.00
22550;BME280;11441;57.164;-2.120;2022-08-19T09:28:28;100189.25;;;16.07;100.00
22550;BME280;11441;57.164;-2.120;2022-08-19T09:30:57;100177.19;;;16.31;100.00
22550;BME280;11441;57.164;-2.120;2022-08-19T09:33:24;100183.56;;;16.28;100.00
22550;BME280;11441;57.164;-2.120;2022-08-19T09:36:05;100190.41;;;16.09;100.00
22550;BME280;11441;57.164;-2.120;2022-08-19T09:38:53;100191.34;;;16.55;100.00
22550;BME280;11441;57.164;-2.120;2022-08-19T09:41:22;100195.34;;;16.50;100.00
22550;BME280;11441;57.164;-2.120;2022-08-19T09:43:51;100194.97;;;16.48;100.00
22550;BME280;11441;57.164;-2.120;2022-08-19T09:46:20;100189.97;;;16.21;100.00
22550;BME280;11441;57.164;-2.120;2022-08-19T09:48:52;100203.53;;;16.68;100.00
22550;BME280;11441;57.164;-2.120;2022-08-19T09:51:24;100190.28;;;16.90;100.00
22550;BME280;11441;57.164;-2.120;2022-08-19T09:53:52;100186.47;;;17.15;100.00
22550;BME280;11441;57.164;-2.120;2022-08-19T09:56:23;100198.19;;;16.95;100.00
22550;BME280;11441;57.164;-2.120;2022-08-19T09:58:50;100198.81;;;17.14;100.00
22550;BME280;11441;57.164;-2.120;2022-08-19T10:01:24;100192.56;;;17.03;100.00
22550;BME280;11441;57.164;-2.120;2022-08-19T10:03:55;100189.50;;;17.31;100.00
22550;BME280;11441;57.164;-2.120;2022-08-19T10:06:26;100188.53;;;17.49;100.00
22550;BME280;11441;57.164;-2.120;2022-08-19T10:09:14;100191.63;;;17.55;100.00
22550;BME280;11441;57.164;-2.120;2022-08-19T10:11:44;100186.72;;;17.31;100.00
22550;BME280;11441;57.164;-2.120;2022-08-19T10:14:20;100180.66;;;17.02;100.00
22550;BME280;11441;57.164;-2.120;2022-08-19T10:16:50;100182.22;;;17.07;100.00
22550;BME280;11441;57.164;-2.120;2022-08-19T10:19:19;100166.16;;;17.22;100.00
22550;BME280;11441;57.164;-2.120;2022-08-19T10:21:51;100171.56;;;16.94;100.00
22550;BME280;11441;57.164;-2.120;2022-08-19T10:24:18;100142.53;;;16.99;100.00
22550;BME280;11441;57.164;-2.120;2022-08-19T10:27:05;100163.03;;;17.16;100.00
22550;BME280;11441;57.164;-2.120;2022-08-19T10:29:35;100170.31;;;17.03;100.00
22550;BME280;11441;57.164;-2.120;2022-08-19T10:32:12;100169.91;;;17.42;100.00
22550;BME280;11441;57.164;-2.120;2022-08-19T10:34:39;100165.03;;;17.50;100.00
22550;BME280;11441;57.164;-2.120;2022-08-19T10:37:15;100166.00;;;17.36;100.00
22550;BME280;11441;57.164;-2.120;2022-08-19T10:40:19;100169.09;;;17.45;100.00
22550;BME280;11441;57.164;-2.120;2022-08-19T10:42:46;100155.81;;;17.57;100.00
22550;BME280;11441;57.164;-2.120;2022-08-19T10:45:13;100156.22;;;17.55;100.00
22550;BME280;11441;57.164;-2.120;2022-08-19T10:47:40;100166.75;;;17.40;100.00
22550;BME280;11441;57.164;-2.120;2022-08-19T10:50:08;100162.44;;;17.70;100.00
22550;BME280;11441;57.164;-2.120;2022-08-19T10:52:55;100164.28;;;17.80;100.00
22550;BME280;11441;57.164;-2.120;2022-08-19T10:55:23;100172.06;;;17.62;100.00
22550;BME280;11441;57.164;-2.120;2022-08-19T10:58:19;100163.38;;;17.56;100.00
22550;BME280;11441;57.164;-2.120;2022-08-19T11:00:54;100156.72;;;17.81;100.00
22550;BME280;11441;57.164;-2.120;2022-08-19T11:03:22;100161.84;;;17.86;100.00
22550;BME280;11441;57.164;-2.120;2022-08-19T11:06:04;100165.50;;;18.10;100.00
22550;BME280;11441;57.164;-2.120;2022-08-19T11:08:32;100165.03;;;18.15;100.00
22550;BME280;11441;57.164;-2.120;2022-08-19T11:11:02;100166.50;;;18.23;100.00
22550;BME280;11441;57.164;-2.120;2022-08-19T11:13:32;100176.66;;;18.10;100.00
22550;BME280;11441;57.164;-2.120;2022-08-19T11:16:03;100175.72;;;17.89;100.00
22550;BME280;11441;57.164;-2.120;2022-08-19T11:18:52;100168.41;;;18.03;100.00
22550;BME280;11441;57.164;-2.120;2022-08-19T11:21:33;100174.22;;;18.12;100.00
22550;BME280;11441;57.164;-2.120;2022-08-19T11:24:03;100176.66;;;17.76;100.00
22550;BME280;11441;57.164;-2.120;2022-08-19T11:26:33;100180.53;;;17.89;100.00
22550;BME280;11441;57.164;-2.120;2022-08-19T11:29:00;100187.56;;;17.63;100.00
22550;BME280;11441;57.164;-2.120;2022-08-19T11:31:33;100180.09;;;17.90;100.00
22550;BME280;11441;57.164;-2.120;2022-08-19T11:34:04;100173.34;;;17.88;100.00
22550;BME280;11441;57.164;-2.120;2022-08-19T11:36:32;100174.03;;;17.99;100.00
22550;BME280;11441;57.164;-2.120;2022-08-19T11:38:59;100186.00;;;17.96;100.00
22550;BME280;11441;57.164;-2.120;2022-08-19T11:41:27;100186.78;;;17.97;100.00
22550;BME280;11441;57.164;-2.120;2022-08-19T11:43:54;100180.59;;;18.13;100.00
22550;BME280;11441;57.164;-2.120;2022-08-19T11:46:23;100189.28;;;18.18;100.00
22550;BME280;11441;57.164;-2.120;2022-08-19T11:48:51;100198.47;;;18.15;100.00
22550;BME280;11441;57.164;-2.120;2022-08-19T11:51:21;100197.28;;;18.43;100.00
22550;BME280;11441;57.164;-2.120;2022-08-19T11:53:48;100194.03;;;17.90;100.00
22550;BME280;11441;57.164;-2.120;2022-08-19T11:56:18;100186.88;;;18.20;100.00
22550;BME280;11441;57.164;-2.120;2022-08-19T11:58:45;100172.06;;;17.96;100.00
22550;BME280;11441;57.164;-2.120;2022-08-19T12:01:15;100190.69;;;18.30;100.00
22550;BME280;11441;57.164;-2.120;2022-08-19T12:03:44;100182.03;;;18.52;100.00
22550;BME280;11441;57.164;-2.120;2022-08-19T12:06:15;100196.13;;;18.41;100.00
22550;BME280;11441;57.164;-2.120;2022-08-19T12:08:43;100188.22;;;18.63;100.00
22550;BME280;11441;57.164;-2.120;2022-08-19T12:11:12;100192.78;;;18.77;99.84
22550;BME280;11441;57.164;-2.120;2022-08-19T12:13:40;100193.94;;;18.79;99.03
22550;BME280;11441;57.164;-2.120;2022-08-19T12:16:14;100197.66;;;18.96;98.98
22550;BME280;11441;57.164;-2.120;2022-08-19T12:18:42;100193.84;;;18.87;100.00
22550;BME280;11441;57.164;-2.120;2022-08-19T12:21:14;100188.38;;;19.03;100.00
22550;BME280;11441;57.164;-2.120;2022-08-19T12:23:43;100189.28;;;18.96;100.00
22550;BME280;11441;57.164;-2.120;2022-08-19T12:26:11;100192.22;;;18.62;100.00
22550;BME280;11441;57.164;-2.120;2022-08-19T12:28:39;100196.69;;;18.83;100.00
22550;BME280;11441;57.164;-2.120;2022-08-19T12:31:06;100199.94;;;19.01;100.00
22550;BME280;11441;57.164;-2.120;2022-08-19T12:33:33;100198.53;;;18.93;100.00
22550;BME280;11441;57.164;-2.120;2022-08-19T12:36:05;100198.75;;;19.02;100.00
22550;BME280;11441;57.164;-2.120;2022-08-19T12:38:33;100191.94;;;19.27;100.00
22550;BME280;11441;57.164;-2.120;2022-08-19T12:41:01;100201.28;;;19.17;97.38
22550;BME280;11441;57.164;-2.120;2022-08-19T12:43:36;100207.41;;;19.08;100.00
22550;BME280;11441;57.164;-2.120;2022-08-19T12:46:05;100209.78;;;19.10;99.44
22550;BME280;11441;57.164;-2.120;2022-08-19T12:48:37;100206.75;;;19.00;100.00
22550;BME280;11441;57.164;-2.120;2022-08-19T12:51:09;100207.47;;;18.81;100.00
22550;BME280;11441;57.164;-2.120;2022-08-19T12:53:37;100206.72;;;19.24;98.79
22550;BME280;11441;57.164;-2.120;2022-08-19T12:56:06;100198.91;;;19.39;94.14
22550;BME280;11441;57.164;-2.120;2022-08-19T12:58:38;100203.69;;;19.38;94.32
22550;BME280;11441;57.164;-2.120;2022-08-19T13:01:10;100204.69;;;19.28;96.64
22550;BME280;11441;57.164;-2.120;2022-08-19T13:03:55;100206.44;;;18.95;89.55
22550;BME280;11441;57.164;-2.120;2022-08-19T13:06:41;100194.13;;;19.59;88.54
22550;BME280;11441;57.164;-2.120;2022-08-19T13:09:08;100197.34;;;19.78;87.72
22550;BME280;11441;57.164;-2.120;2022-08-19T13:11:37;100205.50;;;19.69;81.77